createdAt,value
2023-03-29T00:01:42.496Z,0.80
2023-03-29T00:04:10.295Z,0.90
2023-03-29T00:06:37.879Z,0.80
2023-03-29T00:09:05.963Z,0.60
2023-03-29T00:11:32.942Z,0.80
2023-03-29T00:13:59.487Z,1.10
2023-03-29T00:16:26.208Z,0.70
2023-03-29T00:18:52.808Z,0.70
2023-03-29T00:21:19.371Z,0.88
2023-03-29T00:23:46.043Z,0.73
2023-03-29T00:26:12.785Z,0.60
2023-03-29T00:28:39.307Z,0.70
2023-03-29T00:31:14.572Z,0.63
2023-03-29T00:33:42.285Z,1.00
2023-03-29T00:36:10.698Z,0.80
2023-03-29T00:38:37.624Z,0.70
2023-03-29T00:41:06.560Z,0.57
2023-03-29T00:43:57.107Z,0.90
2023-03-29T00:46:26.021Z,0.73
2023-03-29T00:48:57.013Z,0.85
2023-03-29T00:51:26.846Z,0.75
2023-03-29T00:53:59.146Z,0.70
2023-03-29T00:56:34.836Z,0.75
2023-03-29T00:59:13.840Z,0.93
2023-03-29T01:01:55.144Z,0.77
2023-03-29T01:04:45.475Z,0.80
2023-03-29T01:07:18.669Z,0.60
2023-03-29T01:09:50.941Z,0.70
2023-03-29T01:12:22.919Z,0.70
2023-03-29T01:14:56.542Z,1.10
2023-03-29T01:17:25.539Z,0.77
2023-03-29T01:20:13.688Z,0.68
2023-03-29T01:23:26.981Z,0.52
2023-03-29T01:26:25.017Z,0.70
2023-03-29T01:28:57.639Z,0.90
2023-03-29T01:31:32.568Z,0.70
2023-03-29T01:34:07.383Z,0.80
2023-03-29T01:36:50.962Z,0.88
2023-03-29T01:39:18.948Z,0.82
2023-03-29T01:42:14.318Z,0.90
2023-03-29T01:44:56.665Z,0.90
2023-03-29T01:48:01.802Z,0.80
2023-03-29T01:50:54.332Z,1.25
2023-03-29T01:53:30.504Z,0.90
2023-03-29T01:56:02.377Z,0.90
2023-03-29T01:58:34.036Z,0.85
2023-03-29T02:01:05.802Z,0.80
2023-03-29T02:03:34.742Z,0.82
2023-03-29T02:06:03.154Z,0.98
2023-03-29T02:08:31.008Z,0.98
2023-03-29T02:10:57.948Z,1.00
2023-03-29T02:13:24.626Z,1.10
2023-03-29T02:15:51.230Z,1.10
2023-03-29T02:18:19.850Z,0.95
2023-03-29T02:20:50.797Z,1.05
2023-03-29T02:23:21.328Z,1.00
2023-03-29T02:25:50.901Z,1.20
2023-03-29T02:28:17.596Z,0.95
2023-03-29T02:30:48.453Z,1.05
2023-03-29T02:33:25.247Z,1.00
2023-03-29T02:35:56.764Z,1.30
2023-03-29T02:38:27.762Z,1.27
2023-03-29T02:40:57.045Z,1.15
2023-03-29T02:43:25.977Z,1.08
2023-03-29T02:45:53.270Z,1.20
2023-03-29T02:48:23.660Z,1.33
2023-03-29T02:50:56.291Z,1.20
2023-03-29T02:53:29.052Z,0.95
2023-03-29T02:55:56.079Z,1.10
2023-03-29T02:58:26.543Z,1.15
2023-03-29T03:00:53.566Z,1.30
2023-03-29T03:03:20.805Z,1.00
2023-03-29T03:05:47.774Z,1.40
2023-03-29T03:08:14.551Z,1.00
2023-03-29T03:10:41.551Z,1.10
2023-03-29T03:13:08.168Z,1.10
2023-03-29T03:15:35.927Z,1.00
2023-03-29T03:18:03.692Z,1.23
2023-03-29T03:20:31.230Z,1.35
2023-03-29T03:22:58.579Z,1.13
2023-03-29T03:25:25.153Z,1.20
2023-03-29T03:27:51.808Z,1.05
2023-03-29T03:30:18.959Z,1.08
2023-03-29T03:32:45.620Z,1.00
2023-03-29T03:35:12.737Z,1.13
2023-03-29T03:37:40.119Z,1.38
2023-03-29T03:40:12.085Z,1.00
2023-03-29T03:42:40.211Z,1.10
2023-03-29T03:45:08.528Z,1.20
2023-03-29T03:47:37.442Z,1.13
2023-03-29T03:50:06.282Z,0.98
2023-03-29T03:52:32.850Z,1.00
2023-03-29T03:54:59.421Z,0.90
2023-03-29T03:57:26.033Z,1.13
2023-03-29T03:59:52.982Z,1.13
2023-03-29T04:02:20.662Z,1.25
2023-03-29T04:04:47.707Z,1.10
2023-03-29T04:07:14.439Z,1.08
2023-03-29T04:09:41.079Z,0.88
2023-03-29T04:12:07.773Z,1.13
2023-03-29T04:14:34.297Z,1.30
2023-03-29T04:17:01.448Z,1.10
2023-03-29T04:19:28.193Z,1.05
2023-03-29T04:21:54.729Z,1.10
2023-03-29T04:24:23.086Z,1.25
2023-03-29T04:26:49.643Z,0.98
2023-03-29T04:29:16.196Z,1.20
2023-03-29T04:31:42.811Z,1.10
2023-03-29T04:34:09.421Z,1.20
2023-03-29T04:36:36.044Z,1.23
2023-03-29T04:39:04.575Z,1.00
2023-03-29T04:41:32.696Z,1.10
2023-03-29T04:43:59.314Z,1.10
2023-03-29T04:46:26.590Z,1.15
2023-03-29T04:48:54.062Z,1.02
2023-03-29T04:51:22.370Z,1.10
2023-03-29T04:53:52.846Z,1.13
2023-03-29T04:56:19.391Z,1.13
2023-03-29T04:58:45.973Z,1.20
2023-03-29T05:01:12.554Z,0.90
2023-03-29T05:03:39.551Z,0.95
2023-03-29T05:06:08.793Z,0.95
2023-03-29T05:08:40.087Z,1.15
2023-03-29T05:11:08.390Z,0.95
2023-03-29T05:13:35.533Z,1.02
2023-03-29T05:16:02.599Z,1.10
2023-03-29T05:18:30.046Z,1.00
2023-03-29T05:20:57.928Z,1.05
2023-03-29T05:23:25.789Z,1.00
2023-03-29T05:25:56.052Z,1.00
2023-03-29T05:28:22.971Z,0.93
2023-03-29T05:31:00.698Z,1.00
2023-03-29T05:33:27.703Z,0.95
2023-03-29T05:36:06.644Z,0.70
2023-03-29T05:38:33.411Z,1.10
2023-03-29T05:41:00.860Z,0.82
2023-03-29T05:43:28.048Z,0.90
2023-03-29T05:45:55.920Z,0.80
2023-03-29T05:48:23.762Z,0.75
2023-03-29T05:50:53.503Z,0.88
2023-03-29T05:53:21.982Z,0.98
2023-03-29T05:55:48.966Z,0.95
2023-03-29T05:58:17.989Z,0.90
2023-03-29T06:00:44.867Z,0.85
2023-03-29T06:03:21.094Z,0.93
2023-03-29T06:05:56.918Z,0.90
2023-03-29T06:08:23.765Z,1.17
2023-03-29T06:10:50.326Z,0.90
2023-03-29T06:13:17.372Z,0.82
2023-03-29T06:15:43.939Z,0.70
2023-03-29T06:18:10.920Z,0.70
2023-03-29T06:20:37.533Z,0.90
2023-03-29T06:23:04.070Z,0.88
2023-03-29T06:25:30.610Z,0.65
2023-03-29T06:27:57.547Z,0.95
2023-03-29T06:30:24.061Z,0.77
2023-03-29T06:32:50.757Z,0.63
2023-03-29T06:35:18.390Z,0.88
2023-03-29T06:37:50.026Z,0.70
2023-03-29T06:40:21.319Z,0.90
2023-03-29T06:42:48.577Z,0.88
2023-03-29T06:45:16.172Z,0.80
2023-03-29T06:47:42.788Z,0.90
2023-03-29T06:50:10.224Z,0.85
2023-03-29T06:52:36.832Z,0.70
2023-03-29T06:55:07.542Z,0.60
2023-03-29T06:57:34.289Z,1.00
2023-03-29T07:00:01.554Z,1.00
2023-03-29T07:02:29.063Z,1.00
2023-03-29T07:04:56.259Z,1.20
2023-03-29T07:07:24.240Z,1.13
2023-03-29T07:09:54.600Z,1.33
2023-03-29T07:12:23.698Z,1.17
2023-03-29T07:14:50.344Z,1.30
2023-03-29T07:17:16.861Z,1.25
2023-03-29T07:19:43.937Z,1.13
2023-03-29T07:22:11.307Z,1.35
2023-03-29T07:24:37.904Z,1.00
2023-03-29T07:27:05.026Z,1.10
2023-03-29T07:29:32.332Z,1.08
2023-03-29T07:31:59.090Z,1.23
2023-03-29T07:34:25.796Z,1.73
2023-03-29T07:36:52.582Z,1.88
2023-03-29T07:39:19.239Z,1.50
2023-03-29T07:41:45.949Z,1.52
2023-03-29T07:44:12.504Z,1.50
2023-03-29T07:46:39.224Z,1.40
2023-03-29T07:49:07.438Z,1.60
2023-03-29T07:51:34.153Z,1.73
2023-03-29T07:54:00.753Z,2.17
2023-03-29T07:56:27.338Z,1.80
2023-03-29T07:58:53.931Z,1.75
2023-03-29T08:01:20.677Z,1.83
2023-03-29T08:03:48.086Z,1.58
2023-03-29T08:06:16.215Z,1.60
2023-03-29T08:08:42.747Z,1.55
2023-03-29T08:11:10.081Z,1.30
2023-03-29T08:13:37.072Z,1.20
2023-03-29T08:16:04.362Z,1.10
2023-03-29T08:18:32.825Z,1.30
2023-03-29T08:21:01.305Z,1.38
2023-03-29T08:23:28.010Z,1.25
2023-03-29T08:25:54.543Z,1.02
2023-03-29T08:28:21.077Z,1.08
2023-03-29T08:30:48.162Z,1.20
2023-03-29T08:33:14.841Z,1.13
2023-03-29T08:35:41.685Z,1.05
2023-03-29T08:38:08.448Z,1.05
2023-03-29T08:40:35.339Z,0.95
2023-03-29T08:43:19.984Z,1.08
2023-03-29T08:45:52.721Z,1.05
2023-03-29T08:48:29.958Z,1.10
2023-03-29T08:51:02.617Z,1.20
2023-03-29T08:53:45.138Z,0.82
2023-03-29T08:56:19.733Z,0.88
2023-03-29T08:58:48.125Z,1.02
2023-03-29T09:01:14.777Z,1.20
2023-03-29T09:03:48.538Z,1.05
2023-03-29T09:06:18.822Z,1.17
2023-03-29T09:08:47.835Z,1.10
2023-03-29T09:11:29.945Z,1.15
2023-03-29T09:14:15.630Z,1.13
2023-03-29T09:16:50.356Z,0.80
2023-03-29T09:19:17.045Z,0.90
2023-03-29T09:21:46.744Z,1.10
2023-03-29T09:24:42.840Z,1.00
2023-03-29T09:27:31.364Z,1.20
2023-03-29T09:30:10.100Z,1.00
2023-03-29T09:32:44.270Z,0.90
2023-03-29T09:35:32.608Z,0.80
2023-03-29T09:37:59.331Z,0.80
2023-03-29T09:40:41.434Z,0.98
2023-03-29T09:43:15.439Z,1.30
2023-03-29T09:45:42.800Z,1.10
2023-03-29T09:48:14.910Z,1.27
2023-03-29T09:50:46.561Z,1.05
2023-03-29T09:53:15.887Z,1.17
2023-03-29T09:55:45.002Z,1.33
2023-03-29T09:58:14.831Z,1.20
2023-03-29T10:00:41.891Z,1.00
2023-03-29T10:03:10.624Z,1.42
2023-03-29T10:05:37.991Z,1.50
2023-03-29T10:08:19.472Z,0.80
2023-03-29T10:10:47.478Z,1.27
2023-03-29T10:13:22.856Z,1.30
2023-03-29T10:16:10.456Z,1.13
2023-03-29T10:18:42.499Z,1.10
2023-03-29T10:21:12.979Z,0.98
2023-03-29T10:23:39.862Z,1.33
2023-03-29T10:26:15.001Z,0.88
2023-03-29T10:28:41.782Z,1.30
2023-03-29T10:31:18.133Z,1.42
2023-03-29T10:33:55.581Z,1.23
2023-03-29T10:36:23.870Z,1.10
2023-03-29T10:38:52.830Z,1.08
2023-03-29T10:41:21.756Z,1.30
2023-03-29T10:43:51.154Z,1.20
2023-03-29T10:46:29.042Z,1.10
2023-03-29T10:48:58.702Z,1.17
2023-03-29T10:51:30.080Z,1.25
2023-03-29T10:53:59.114Z,1.20
2023-03-29T10:56:41.691Z,1.42
2023-03-29T10:59:23.324Z,1.42
2023-03-29T11:02:04.857Z,1.30
2023-03-29T11:04:56.777Z,1.30
2023-03-29T11:07:28.786Z,1.10
2023-03-29T11:10:05.734Z,1.20
2023-03-29T11:13:11.884Z,1.30
2023-03-29T11:15:41.614Z,1.13
2023-03-29T11:18:28.035Z,1.50
2023-03-29T11:23:53.291Z,1.17
2023-03-29T11:26:27.104Z,1.15
2023-03-29T11:29:07.290Z,1.30
2023-03-29T11:31:45.509Z,1.25
2023-03-29T11:34:50.060Z,1.10
2023-03-29T11:37:28.557Z,1.20
2023-03-29T11:40:50.105Z,1.35
2023-03-29T11:43:27.863Z,1.20
2023-03-29T11:46:17.860Z,1.40
2023-03-29T11:49:23.152Z,1.15
2023-03-29T11:51:56.900Z,1.45
2023-03-29T11:54:49.495Z,1.48
2023-03-29T11:57:23.619Z,1.40
2023-03-29T11:59:59.708Z,1.20
2023-03-29T12:02:42.429Z,1.33
2023-03-29T12:05:20.228Z,1.23
2023-03-29T12:07:56.827Z,1.30
2023-03-29T12:10:29.157Z,1.38
2023-03-29T12:13:18.955Z,1.33
2023-03-29T12:16:01.314Z,1.40
2023-03-29T12:18:33.959Z,1.15
2023-03-29T12:21:06.946Z,1.20
2023-03-29T12:23:34.089Z,1.35
2023-03-29T12:26:10.772Z,1.42
2023-03-29T12:29:06.781Z,1.20
2023-03-29T12:31:55.278Z,1.58
2023-03-29T12:34:29.707Z,1.25
2023-03-29T12:37:27.759Z,1.52
2023-03-29T12:39:54.526Z,1.58
2023-03-29T12:42:23.743Z,1.70
2023-03-29T12:44:57.546Z,1.80
2023-03-29T12:47:27.844Z,1.27
2023-03-29T12:49:56.678Z,1.27
2023-03-29T12:52:30.040Z,1.35
2023-03-29T12:54:59.271Z,1.35
2023-03-29T12:57:29.013Z,1.30
2023-03-29T12:59:55.720Z,1.50
2023-03-29T13:02:22.548Z,1.60
2023-03-29T13:04:56.438Z,1.27
2023-03-29T13:07:23.061Z,1.10
2023-03-29T13:09:55.152Z,1.48
2023-03-29T13:12:32.984Z,1.15
2023-03-29T13:15:04.144Z,1.30
2023-03-29T13:18:02.622Z,1.55
2023-03-29T13:20:39.228Z,1.10
2023-03-29T13:23:31.820Z,1.52
2023-03-29T13:26:42.778Z,1.50
2023-03-29T13:29:38.812Z,1.63
2023-03-29T13:32:27.563Z,1.30
2023-03-29T13:35:06.275Z,1.20
2023-03-29T13:38:00.820Z,1.38
2023-03-29T13:40:30.160Z,1.50
2023-03-29T13:43:19.693Z,1.55
2023-03-29T13:46:11.794Z,1.50
2023-03-29T13:48:38.363Z,1.52
2023-03-29T13:51:23.419Z,1.50
2023-03-29T13:53:55.827Z,1.30
2023-03-29T13:56:38.638Z,1.48
2023-03-29T13:59:15.856Z,1.20
2023-03-29T14:01:50.578Z,1.38
2023-03-29T14:04:24.544Z,1.70
2023-03-29T14:06:56.848Z,1.80
2023-03-29T14:09:30.872Z,1.50
2023-03-29T14:12:01.461Z,1.33
2023-03-29T14:14:32.147Z,1.48
2023-03-29T14:17:01.993Z,1.60
2023-03-29T14:19:36.140Z,1.48
2023-03-29T14:22:08.166Z,1.40
2023-03-29T14:24:38.855Z,1.33
2023-03-29T14:27:10.168Z,1.63
2023-03-29T14:29:37.017Z,1.48
2023-03-29T14:32:16.258Z,1.33
2023-03-29T14:34:43.644Z,1.65
2023-03-29T14:37:12.722Z,1.67
2023-03-29T14:39:41.080Z,1.30
2023-03-29T14:42:22.313Z,1.52
2023-03-29T14:44:50.464Z,2.20
2023-03-29T14:47:31.263Z,1.33
2023-03-29T14:50:00.939Z,1.23
2023-03-29T14:52:31.929Z,1.33
2023-03-29T14:55:01.892Z,1.20
2023-03-29T14:57:35.628Z,1.38
2023-03-29T15:00:17.282Z,1.60
2023-03-29T15:03:01.010Z,1.30
2023-03-29T15:05:33.233Z,1.70
2023-03-29T15:08:01.676Z,1.60
2023-03-29T15:10:32.760Z,1.48
2023-03-29T15:13:03.580Z,1.50
2023-03-29T15:15:33.160Z,1.38
2023-03-29T15:18:00.876Z,1.50
2023-03-29T15:20:31.651Z,1.40
2023-03-29T15:23:20.715Z,1.58
2023-03-29T15:25:56.853Z,1.60
2023-03-29T15:28:32.682Z,1.50
2023-03-29T15:33:39.240Z,1.40
2023-03-29T15:36:08.634Z,1.60
2023-03-29T15:38:44.182Z,1.65
2023-03-29T15:41:13.646Z,1.63
2023-03-29T15:43:41.273Z,1.60
2023-03-29T15:46:08.237Z,1.65
2023-03-29T15:48:35.032Z,1.63
2023-03-29T15:51:06.450Z,1.60
2023-03-29T15:53:33.844Z,1.50
2023-03-29T15:56:02.556Z,1.40
2023-03-29T15:58:31.697Z,1.40
2023-03-29T16:01:11.249Z,1.40
2023-03-29T16:03:41.775Z,1.70
2023-03-29T16:06:12.446Z,1.58
2023-03-29T16:08:39.070Z,1.67
2023-03-29T16:11:06.835Z,1.75
2023-03-29T16:13:33.406Z,1.90
2023-03-29T16:16:00.008Z,1.80
2023-03-29T16:18:27.215Z,1.85
2023-03-29T16:20:54.464Z,1.52
2023-03-29T16:23:21.068Z,1.80
2023-03-29T16:25:47.787Z,1.88
2023-03-29T16:28:14.341Z,1.63
2023-03-29T16:30:41.106Z,1.65
2023-03-29T16:33:08.743Z,1.80
2023-03-29T16:35:40.120Z,2.05
2023-03-29T16:38:07.991Z,1.95
2023-03-29T16:40:35.949Z,2.10
2023-03-29T16:43:02.879Z,1.50
2023-03-29T16:45:29.653Z,1.98
2023-03-29T16:47:56.918Z,1.50
2023-03-29T16:50:23.802Z,1.50
2023-03-29T16:52:52.636Z,1.77
2023-03-29T16:55:19.460Z,1.65
2023-03-29T16:57:47.702Z,1.73
2023-03-29T17:00:16.470Z,1.70
2023-03-29T17:02:44.201Z,1.42
2023-03-29T17:05:12.646Z,1.40
2023-03-29T17:07:40.225Z,1.63
2023-03-29T17:10:08.323Z,1.48
2023-03-29T17:12:35.564Z,1.40
2023-03-29T17:15:02.925Z,1.50
2023-03-29T17:17:29.734Z,1.70
2023-03-29T17:19:56.898Z,1.65
2023-03-29T17:22:24.291Z,1.60
2023-03-29T17:24:50.889Z,1.77
2023-03-29T17:27:18.278Z,1.45
2023-03-29T17:29:44.955Z,1.60
2023-03-29T17:32:11.566Z,1.50
2023-03-29T17:34:38.707Z,1.60
2023-03-29T17:37:05.459Z,1.50
2023-03-29T17:39:32.260Z,1.60
2023-03-29T17:41:58.854Z,1.63
2023-03-29T17:44:25.552Z,1.98
2023-03-29T17:46:52.246Z,1.52
2023-03-29T17:49:18.919Z,1.35
2023-03-29T17:51:46.278Z,1.48
2023-03-29T17:54:12.902Z,1.50
2023-03-29T17:56:39.592Z,1.52
2023-03-29T17:59:06.242Z,1.60
2023-03-29T18:01:33.076Z,1.67
2023-03-29T18:03:59.677Z,1.45
2023-03-29T18:06:26.603Z,1.40
2023-03-29T18:08:53.336Z,1.50
2023-03-29T18:11:22.921Z,1.52
2023-03-29T18:13:53.473Z,1.60
2023-03-29T18:16:22.009Z,1.27
2023-03-29T18:18:48.714Z,1.35
2023-03-29T18:21:16.571Z,1.48
2023-03-29T18:23:47.466Z,1.35
2023-03-29T18:26:15.849Z,1.30
2023-03-29T18:28:46.612Z,1.30
2023-03-29T18:31:14.164Z,1.42
2023-03-29T18:33:40.872Z,1.05
2023-03-29T18:36:11.954Z,1.50
2023-03-29T18:38:40.599Z,1.30
2023-03-29T18:41:08.647Z,1.20
2023-03-29T18:43:36.008Z,1.42
2023-03-29T18:46:03.261Z,1.13
2023-03-29T18:48:30.266Z,1.45
2023-03-29T18:50:57.294Z,1.15
2023-03-29T18:53:24.256Z,1.10
2023-03-29T18:55:50.941Z,1.50
2023-03-29T18:58:17.843Z,1.20
2023-03-29T19:00:44.570Z,1.45
2023-03-29T19:03:11.303Z,1.25
2023-03-29T19:05:39.489Z,1.20
2023-03-29T19:08:07.062Z,1.10
2023-03-29T19:10:38.086Z,1.20
2023-03-29T19:13:05.520Z,1.27
2023-03-29T19:15:33.902Z,1.20
2023-03-29T19:18:00.622Z,1.50
2023-03-29T19:20:27.459Z,1.20
2023-03-29T19:22:54.085Z,1.48
2023-03-29T19:25:20.790Z,1.10
2023-03-29T19:27:47.827Z,1.27
2023-03-29T19:30:15.167Z,1.20
2023-03-29T19:32:41.796Z,0.93
2023-03-29T19:35:09.656Z,1.20
2023-03-29T19:37:36.529Z,1.00
2023-03-29T19:40:06.524Z,1.08
2023-03-29T19:42:36.256Z,1.00
2023-03-29T19:45:04.063Z,0.82
2023-03-29T19:47:31.191Z,1.95
2023-03-29T19:49:58.747Z,1.30
2023-03-29T19:52:27.990Z,1.30
2023-03-29T19:54:56.022Z,1.13
2023-03-29T19:57:23.850Z,1.10
2023-03-29T19:59:50.969Z,1.27
2023-03-29T20:02:17.610Z,1.00
2023-03-29T20:04:44.314Z,1.10
2023-03-29T20:07:10.914Z,1.27
2023-03-29T20:09:37.761Z,0.90
2023-03-29T20:12:05.357Z,0.90
2023-03-29T20:14:32.154Z,1.10
2023-03-29T20:16:58.888Z,1.10
2023-03-29T20:19:25.541Z,1.00
2023-03-29T20:21:57.560Z,1.00
2023-03-29T20:24:25.120Z,0.95
2023-03-29T20:26:52.293Z,1.40
2023-03-29T20:29:19.103Z,1.10
2023-03-29T20:31:46.238Z,1.10
2023-03-29T20:34:13.063Z,0.90
2023-03-29T20:36:40.474Z,1.15
2023-03-29T20:39:08.223Z,0.90
2023-03-29T20:41:38.360Z,0.80
2023-03-29T20:44:05.697Z,0.98
2023-03-29T20:46:35.212Z,0.80
2023-03-29T20:49:08.885Z,0.95
2023-03-29T20:51:36.804Z,1.00
2023-03-29T20:54:06.114Z,1.05
2023-03-29T20:56:35.460Z,0.90
2023-03-29T20:59:02.917Z,1.00
2023-03-29T21:01:32.874Z,1.20
2023-03-29T21:03:59.451Z,1.05
2023-03-29T21:06:26.100Z,0.85
2023-03-29T21:08:53.200Z,1.00
2023-03-29T21:11:21.009Z,1.17
2023-03-29T21:13:47.753Z,1.00
2023-03-29T21:16:14.502Z,0.88
2023-03-29T21:18:41.665Z,0.95
2023-03-29T21:21:09.650Z,0.90
2023-03-29T21:23:36.655Z,0.90
2023-03-29T21:26:06.731Z,0.98
2023-03-29T21:28:34.033Z,0.95
2023-03-29T21:31:04.818Z,1.10
2023-03-29T21:33:31.767Z,1.02
2023-03-29T21:35:58.477Z,0.90
2023-03-29T21:38:25.279Z,1.83
2023-03-29T21:40:52.020Z,1.02
2023-03-29T21:43:18.597Z,1.20
2023-03-29T21:45:49.587Z,0.88
2023-03-29T21:48:17.367Z,0.93
2023-03-29T21:50:44.435Z,1.08
2023-03-29T21:53:11.132Z,1.00
2023-03-29T21:55:37.682Z,0.90
2023-03-29T21:58:04.702Z,0.88
2023-03-29T22:00:32.198Z,0.77
2023-03-29T22:02:58.977Z,1.13
2023-03-29T22:05:28.670Z,1.00
2023-03-29T22:07:58.738Z,0.95
2023-03-29T22:10:25.566Z,1.13
2023-03-29T22:12:52.608Z,1.10
2023-03-29T22:15:22.532Z,1.10
2023-03-29T22:17:49.319Z,0.95
2023-03-29T22:20:18.502Z,1.20
2023-03-29T22:22:49.771Z,1.08
2023-03-29T22:25:17.650Z,1.00
2023-03-29T22:27:45.634Z,1.15
2023-03-29T22:30:13.673Z,1.20
2023-03-29T22:32:41.138Z,1.50
2023-03-29T22:35:08.413Z,0.90
2023-03-29T22:37:41.235Z,1.35
2023-03-29T22:40:10.131Z,1.30
2023-03-29T22:42:36.951Z,1.05
2023-03-29T22:45:04.194Z,1.10
2023-03-29T22:47:30.754Z,1.38
2023-03-29T22:49:57.447Z,1.05
2023-03-29T22:52:24.023Z,1.42
2023-03-29T22:54:50.553Z,1.42
2023-03-29T22:57:17.186Z,1.50
2023-03-29T22:59:43.805Z,1.33
2023-03-29T23:02:10.513Z,1.35
2023-03-29T23:04:38.771Z,1.08
2023-03-29T23:07:06.492Z,1.30
2023-03-29T23:09:33.122Z,1.20
2023-03-29T23:12:01.167Z,1.15
2023-03-29T23:14:27.885Z,1.20
2023-03-29T23:16:54.424Z,1.10
2023-03-29T23:19:21.011Z,1.60
2023-03-29T23:21:47.564Z,1.20
2023-03-29T23:24:18.389Z,1.10
2023-03-29T23:26:45.623Z,1.25
2023-03-29T23:29:12.155Z,1.30
2023-03-29T23:31:38.794Z,1.63
2023-03-29T23:34:05.506Z,1.48
2023-03-29T23:36:32.121Z,1.38
2023-03-29T23:38:59.651Z,1.30
2023-03-29T23:41:28.299Z,1.33
2023-03-29T23:43:57.594Z,1.30
2023-03-29T23:46:24.639Z,1.75
2023-03-29T23:48:51.641Z,1.40
2023-03-29T23:51:22.606Z,1.45
2023-03-29T23:53:50.006Z,1.40
2023-03-29T23:56:16.589Z,1.48
2023-03-29T23:58:43.200Z,1.60
